createdAt,value
2023-05-02T00:00:38.950Z,6.87
2023-05-02T00:03:06.571Z,7.10
2023-05-02T00:05:34.708Z,7.50
2023-05-02T00:08:01.639Z,7.27
2023-05-02T00:10:28.535Z,7.37
2023-05-02T00:12:55.708Z,7.27
2023-05-02T00:15:22.753Z,7.23
2023-05-02T00:17:49.642Z,7.00
2023-05-02T00:20:16.817Z,7.63
2023-05-02T00:22:43.660Z,7.47
2023-05-02T00:25:10.577Z,7.27
2023-05-02T00:27:37.412Z,7.03
2023-05-02T00:30:04.338Z,6.93
2023-05-02T00:32:31.311Z,6.83
2023-05-02T00:34:58.265Z,8.23
2023-05-02T00:37:26.407Z,7.50
2023-05-02T00:39:53.220Z,7.17
2023-05-02T00:42:20.118Z,7.43
2023-05-02T00:44:47.176Z,7.60
2023-05-02T00:47:15.038Z,7.13
2023-05-02T00:49:42.375Z,7.63
2023-05-02T00:52:09.480Z,7.97
2023-05-02T00:54:38.449Z,7.20
2023-05-02T00:57:05.317Z,7.57
2023-05-02T00:59:32.224Z,7.90
2023-05-02T01:02:17.657Z,8.00
2023-05-02T01:04:51.264Z,6.80
2023-05-02T01:07:18.732Z,7.20
2023-05-02T01:10:03.386Z,7.37
2023-05-02T01:12:43.348Z,7.57
2023-05-02T01:15:12.616Z,7.30
2023-05-02T01:17:40.486Z,7.33
2023-05-02T01:20:09.898Z,6.83
2023-05-02T01:22:38.710Z,7.13
2023-05-02T01:25:06.238Z,7.70
2023-05-02T01:27:57.759Z,7.43
2023-05-02T01:30:26.927Z,7.20
2023-05-02T01:32:55.612Z,8.00
2023-05-02T01:35:23.174Z,7.77
2023-05-02T01:37:50.382Z,7.73
2023-05-02T01:40:18.396Z,8.30
2023-05-02T01:42:47.324Z,7.70
2023-05-02T01:45:14.776Z,7.73
2023-05-02T01:47:43.872Z,8.77
2023-05-02T01:50:13.144Z,7.50
2023-05-02T01:52:41.035Z,7.53
2023-05-02T01:55:09.493Z,8.00
2023-05-02T01:57:37.718Z,8.70
2023-05-02T02:00:05.075Z,8.37
2023-05-02T02:02:43.528Z,9.00
2023-05-02T02:05:10.877Z,9.10
2023-05-02T02:07:37.806Z,8.70
2023-05-02T02:10:04.911Z,7.97
2023-05-02T02:12:35.897Z,8.20
2023-05-02T02:15:02.647Z,8.80
2023-05-02T02:17:37.057Z,8.63
2023-05-02T02:20:05.954Z,8.90
2023-05-02T02:22:34.723Z,8.60
2023-05-02T02:25:01.796Z,8.10
2023-05-02T02:27:28.610Z,9.07
2023-05-02T02:29:55.481Z,8.10
2023-05-02T02:32:22.344Z,8.40
2023-05-02T02:34:49.343Z,8.77
2023-05-02T02:37:19.799Z,8.87
2023-05-02T02:39:47.630Z,8.70
2023-05-02T02:42:15.579Z,8.90
2023-05-02T02:45:00.824Z,8.20
2023-05-02T02:47:29.631Z,8.37
2023-05-02T02:49:59.604Z,8.53
2023-05-02T02:52:36.253Z,8.40
2023-05-02T02:55:09.602Z,8.53
2023-05-02T02:57:55.763Z,9.10
2023-05-02T03:00:24.962Z,7.93
2023-05-02T03:02:53.489Z,8.50
2023-05-02T03:05:21.537Z,8.07
2023-05-02T03:07:48.535Z,8.93
2023-05-02T03:10:15.571Z,9.03
2023-05-02T03:12:43.783Z,9.17
2023-05-02T03:15:33.766Z,6.33
2023-05-02T03:18:01.637Z,8.53
2023-05-02T03:20:29.057Z,8.43
2023-05-02T03:22:56.031Z,8.37
2023-05-02T03:25:22.833Z,8.30
2023-05-02T03:27:50.474Z,9.13
2023-05-02T03:30:17.463Z,8.10
2023-05-02T03:32:44.338Z,8.33
2023-05-02T03:35:11.922Z,7.70
2023-05-02T03:37:43.122Z,7.70
2023-05-02T03:40:10.078Z,7.60
2023-05-02T03:42:40.285Z,8.40
2023-05-02T03:45:17.806Z,7.93
2023-05-02T03:47:46.641Z,8.50
2023-05-02T03:50:13.522Z,6.63
2023-05-02T03:52:40.768Z,7.67
2023-05-02T03:55:08.455Z,7.33
2023-05-02T03:57:35.358Z,7.57
2023-05-02T04:00:02.926Z,7.23
2023-05-02T04:02:38.531Z,7.50
2023-05-02T04:05:09.670Z,7.17
2023-05-02T04:07:38.456Z,7.00
2023-05-02T04:10:07.630Z,7.73
2023-05-02T04:12:40.048Z,7.57
2023-05-02T04:15:07.455Z,7.23
2023-05-02T04:17:34.303Z,8.10
2023-05-02T04:20:05.102Z,9.07
2023-05-02T04:22:34.700Z,8.20
2023-05-02T04:25:04.831Z,13.60
2023-05-02T04:27:33.899Z,6.43
2023-05-02T04:30:01.379Z,7.33
2023-05-02T04:32:28.634Z,6.83
2023-05-02T04:34:56.934Z,7.00
2023-05-02T04:37:24.081Z,6.73
2023-05-02T04:39:51.257Z,7.33
2023-05-02T04:42:22.322Z,7.23
2023-05-02T04:44:56.947Z,7.00
2023-05-02T04:47:23.998Z,7.00
2023-05-02T04:49:50.910Z,6.50
2023-05-02T04:52:18.885Z,5.70
2023-05-02T04:54:45.789Z,7.57
2023-05-02T04:57:12.550Z,7.77
2023-05-02T04:59:44.630Z,6.80
2023-05-02T05:02:12.969Z,7.10
2023-05-02T05:04:40.616Z,6.93
2023-05-02T05:07:07.604Z,7.47
2023-05-02T05:09:34.649Z,7.17
2023-05-02T05:12:02.122Z,7.17
2023-05-02T05:14:31.606Z,8.00
2023-05-02T05:16:59.603Z,7.23
2023-05-02T05:19:28.187Z,7.27
2023-05-02T05:21:56.213Z,6.83
2023-05-02T05:24:23.002Z,6.30
2023-05-02T05:26:51.879Z,6.13
2023-05-02T05:29:19.399Z,6.10
2023-05-02T05:31:46.298Z,5.43
2023-05-02T05:34:15.961Z,4.53
2023-05-02T05:36:44.169Z,5.50
2023-05-02T05:39:11.136Z,5.73
2023-05-02T05:41:40.006Z,4.37
2023-05-02T05:44:10.033Z,5.20
2023-05-02T05:46:37.126Z,4.30
2023-05-02T05:49:05.548Z,4.60
2023-05-02T05:51:33.836Z,4.00
2023-05-02T05:54:00.959Z,3.77
2023-05-02T05:56:28.292Z,4.10
2023-05-02T05:59:02.214Z,4.10
2023-05-02T06:01:29.044Z,4.30
2023-05-02T06:03:56.569Z,5.23
2023-05-02T06:06:23.633Z,4.00
2023-05-02T06:08:50.480Z,5.03
2023-05-02T06:11:17.490Z,6.03
2023-05-02T06:13:44.411Z,4.80
2023-05-02T06:16:11.491Z,5.50
2023-05-02T06:18:38.528Z,5.37
2023-05-02T06:21:07.223Z,5.30
2023-05-02T06:23:34.693Z,4.70
2023-05-02T06:26:02.528Z,4.93
2023-05-02T06:28:29.554Z,5.13
2023-05-02T06:31:01.350Z,5.03
2023-05-02T06:33:28.928Z,4.73
2023-05-02T06:35:55.872Z,4.97
2023-05-02T06:38:22.693Z,5.03
2023-05-02T06:40:49.668Z,5.00
2023-05-02T06:43:16.560Z,5.33
2023-05-02T06:45:43.386Z,4.60
2023-05-02T06:48:10.652Z,4.90
2023-05-02T06:50:37.471Z,5.20
2023-05-02T06:53:04.806Z,5.17
2023-05-02T06:55:31.986Z,5.17
2023-05-02T06:57:59.385Z,5.13
2023-05-02T07:00:26.304Z,5.00
2023-05-02T07:02:53.192Z,5.07
2023-05-02T07:05:20.017Z,4.30
2023-05-02T07:07:46.770Z,5.20
2023-05-02T07:10:13.769Z,4.63
2023-05-02T07:12:40.676Z,4.40
2023-05-02T07:15:07.799Z,4.30
2023-05-02T07:17:34.675Z,4.70
2023-05-02T07:20:01.859Z,4.63
2023-05-02T07:22:28.989Z,5.07
2023-05-02T07:24:59.580Z,4.17
2023-05-02T07:27:26.551Z,4.40
2023-05-02T07:29:53.429Z,4.23
2023-05-02T07:32:21.892Z,4.10
2023-05-02T07:34:49.002Z,3.77
2023-05-02T07:37:15.996Z,4.50
2023-05-02T07:39:42.802Z,4.33
2023-05-02T07:42:10.193Z,4.30
2023-05-02T07:44:37.101Z,4.27
2023-05-02T07:47:04.016Z,4.57
2023-05-02T07:49:31.537Z,4.17
2023-05-02T07:51:58.414Z,4.30
2023-05-02T07:54:28.214Z,4.03
2023-05-02T07:56:57.722Z,4.87
2023-05-02T07:59:24.617Z,4.70
2023-05-02T08:01:51.502Z,4.93
2023-05-02T08:04:18.486Z,4.20
2023-05-02T08:06:45.509Z,4.00
2023-05-02T08:09:12.453Z,4.30
2023-05-02T08:11:39.279Z,4.37
2023-05-02T08:14:06.108Z,4.33
2023-05-02T08:16:32.935Z,4.70
2023-05-02T08:18:59.938Z,4.33
2023-05-02T08:21:27.972Z,5.03
2023-05-02T08:23:58.090Z,4.63
2023-05-02T08:26:25.127Z,4.07
2023-05-02T08:28:52.106Z,4.20
2023-05-02T08:31:19.030Z,3.43
2023-05-02T08:33:45.899Z,3.60
2023-05-02T08:36:16.825Z,4.73
2023-05-02T08:38:44.355Z,4.50
2023-05-02T08:41:14.753Z,5.00
2023-05-02T08:43:41.820Z,4.53
2023-05-02T08:46:11.912Z,4.83
2023-05-02T08:48:40.660Z,5.13
2023-05-02T08:51:12.120Z,4.90
2023-05-02T08:53:39.722Z,4.23
2023-05-02T08:56:10.169Z,6.20
2023-05-02T08:58:38.356Z,5.00
2023-05-02T09:01:16.014Z,5.40
2023-05-02T09:03:43.870Z,4.67
2023-05-02T09:06:20.910Z,5.90
2023-05-02T09:08:52.620Z,4.60
2023-05-02T09:11:19.883Z,6.00
2023-05-02T09:13:47.804Z,6.13
2023-05-02T09:16:15.774Z,4.87
2023-05-02T09:18:46.676Z,5.17
2023-05-02T09:21:20.625Z,5.27
2023-05-02T09:23:51.795Z,5.53
2023-05-02T09:26:31.863Z,5.23
2023-05-02T09:29:01.183Z,5.40
2023-05-02T09:34:14.320Z,5.40
2023-05-02T09:36:42.371Z,5.30
2023-05-02T09:39:11.393Z,4.60
2023-05-02T09:41:43.087Z,5.27
2023-05-02T09:44:11.434Z,5.50
2023-05-02T09:46:45.671Z,4.60
2023-05-02T09:49:12.790Z,4.67
2023-05-02T09:51:39.596Z,4.83
2023-05-02T09:54:06.872Z,4.20
2023-05-02T09:56:52.206Z,4.70
2023-05-02T09:59:19.170Z,4.53
2023-05-02T10:01:46.165Z,4.93
2023-05-02T10:04:16.569Z,4.87
2023-05-02T10:06:46.482Z,4.27
2023-05-02T10:09:19.791Z,4.33
2023-05-02T10:11:51.644Z,4.20
2023-05-02T10:14:19.824Z,3.53
2023-05-02T10:17:00.143Z,3.23
2023-05-02T10:19:41.593Z,3.33
2023-05-02T10:22:10.752Z,4.13
2023-05-02T10:24:38.646Z,3.83
2023-05-02T10:27:05.977Z,3.43
2023-05-02T10:29:33.350Z,3.50
2023-05-02T10:32:01.262Z,3.77
2023-05-02T10:34:28.143Z,3.97
2023-05-02T10:37:01.645Z,3.50
2023-05-02T10:39:29.180Z,3.33
2023-05-02T10:41:57.990Z,3.90
2023-05-02T10:44:37.882Z,3.63
2023-05-02T10:47:21.881Z,3.93
2023-05-02T10:50:00.365Z,4.53
2023-05-02T10:52:35.391Z,4.43
2023-05-02T10:55:16.247Z,4.77
2023-05-02T10:58:01.080Z,4.27
2023-05-02T11:00:32.194Z,4.50
2023-05-02T11:02:59.483Z,4.03
2023-05-02T11:05:26.927Z,4.60
2023-05-02T11:08:12.630Z,4.70
2023-05-02T11:10:39.458Z,4.83
2023-05-02T11:13:06.238Z,3.93
2023-05-02T11:15:33.551Z,3.83
2023-05-02T11:18:04.232Z,4.13
2023-05-02T11:20:32.069Z,4.00
2023-05-02T11:23:00.122Z,4.07
2023-05-02T11:25:39.472Z,4.33
2023-05-02T11:28:06.963Z,4.87
2023-05-02T11:30:37.624Z,4.17
2023-05-02T11:33:04.624Z,3.67
2023-05-02T11:35:32.439Z,4.03
2023-05-02T11:38:00.316Z,4.80
2023-05-02T11:40:27.698Z,4.37
2023-05-02T11:42:55.109Z,4.00
2023-05-02T11:45:22.053Z,4.13
2023-05-02T11:47:49.227Z,4.13
2023-05-02T11:50:16.148Z,4.10
2023-05-02T11:52:44.021Z,3.40
2023-05-02T11:55:12.129Z,3.47
2023-05-02T11:57:39.746Z,3.10
2023-05-02T12:00:08.115Z,2.83
2023-05-02T12:02:41.386Z,3.30
2023-05-02T12:05:10.039Z,7.33
2023-05-02T12:07:45.220Z,3.33
2023-05-02T12:10:12.814Z,3.67
2023-05-02T12:12:40.988Z,4.60
2023-05-02T12:15:08.876Z,12.43
2023-05-02T12:17:43.025Z,3.73
2023-05-02T12:20:10.826Z,3.00
2023-05-02T12:22:38.124Z,2.60
2023-05-02T12:25:05.913Z,3.40
2023-05-02T12:27:35.749Z,3.10
2023-05-02T12:30:03.064Z,4.00
2023-05-02T12:32:31.421Z,3.27
2023-05-02T12:34:58.642Z,8.57
2023-05-02T12:37:26.273Z,6.23
2023-05-02T12:39:53.718Z,22.77
2023-05-02T12:42:21.873Z,15.67
2023-05-02T12:44:49.529Z,3.73
2023-05-02T12:47:16.999Z,4.07
2023-05-02T12:49:54.208Z,3.23
2023-05-02T12:52:21.744Z,2.97
2023-05-02T12:54:48.817Z,3.23
2023-05-02T12:57:25.139Z,3.27
2023-05-02T12:59:53.411Z,3.17
2023-05-02T13:02:21.178Z,3.70
2023-05-02T13:04:48.189Z,4.00
2023-05-02T13:07:15.012Z,3.77
2023-05-02T13:09:41.978Z,3.90
2023-05-02T13:12:09.475Z,4.50
2023-05-02T13:14:36.430Z,5.20
2023-05-02T13:17:04.303Z,6.40
2023-05-02T13:19:31.858Z,8.07
2023-05-02T13:21:58.847Z,4.43
2023-05-02T13:24:25.878Z,3.63
2023-05-02T13:26:52.673Z,4.40
2023-05-02T13:29:19.579Z,4.27
2023-05-02T13:31:46.336Z,4.50
2023-05-02T13:34:13.127Z,4.60
2023-05-02T13:36:46.351Z,3.73
2023-05-02T13:39:14.392Z,3.70
2023-05-02T13:41:41.685Z,5.00
2023-05-02T13:44:09.594Z,5.70
2023-05-02T13:46:38.064Z,4.73
2023-05-02T13:49:05.490Z,4.13
2023-05-02T13:51:32.898Z,4.17
2023-05-02T13:54:00.206Z,4.30
2023-05-02T13:56:27.717Z,3.73
2023-05-02T13:58:54.492Z,7.80
2023-05-02T14:01:21.882Z,13.17
2023-05-02T14:03:48.928Z,4.83
2023-05-02T14:06:16.683Z,4.83
2023-05-02T14:08:43.570Z,5.37
2023-05-02T14:11:10.566Z,5.43
2023-05-02T14:13:37.798Z,6.80
2023-05-02T14:16:04.890Z,6.37
2023-05-02T14:18:31.839Z,5.10
2023-05-02T14:21:00.238Z,5.37
2023-05-02T14:23:30.297Z,5.43
2023-05-02T14:25:57.452Z,6.57
2023-05-02T14:28:24.334Z,5.13
2023-05-02T14:30:51.566Z,5.23
2023-05-02T14:33:18.370Z,6.17
2023-05-02T14:35:45.144Z,6.00
2023-05-02T14:38:12.207Z,5.63
2023-05-02T14:40:39.017Z,6.40
2023-05-02T14:43:06.482Z,5.67
2023-05-02T14:45:33.404Z,5.77
2023-05-02T14:48:00.357Z,9.77
2023-05-02T14:50:27.282Z,10.93
2023-05-02T14:52:54.124Z,6.37
2023-05-02T14:55:20.967Z,20.07
2023-05-02T14:57:48.125Z,21.43
2023-05-02T15:00:16.246Z,6.40
2023-05-02T15:02:43.236Z,6.47
2023-05-02T15:05:12.533Z,6.83
2023-05-02T15:07:39.778Z,6.90
2023-05-02T15:10:07.186Z,5.93
2023-05-02T15:12:34.164Z,6.17
2023-05-02T15:15:01.132Z,5.97
2023-05-02T15:17:27.969Z,5.90
2023-05-02T15:19:57.039Z,6.30
2023-05-02T15:22:26.202Z,6.47
2023-05-02T15:24:53.026Z,7.57
2023-05-02T15:27:19.810Z,5.53
2023-05-02T15:29:46.656Z,5.90
2023-05-02T15:32:14.025Z,4.77
2023-05-02T15:34:41.078Z,5.10
2023-05-02T15:37:08.281Z,5.17
2023-05-02T15:39:35.254Z,4.83
2023-05-02T15:42:05.848Z,4.73
2023-05-02T15:44:36.657Z,5.10
2023-05-02T15:47:04.148Z,4.90
2023-05-02T15:49:33.352Z,5.10
2023-05-02T15:52:01.229Z,4.90
2023-05-02T15:54:28.171Z,5.73
2023-05-02T15:56:55.051Z,6.53
2023-05-02T15:59:21.923Z,6.20
2023-05-02T16:01:48.685Z,6.50
2023-05-02T16:04:15.819Z,6.77
2023-05-02T16:06:42.699Z,6.63
2023-05-02T16:09:10.280Z,6.13
2023-05-02T16:11:37.484Z,6.27
2023-05-02T16:14:04.422Z,6.27
2023-05-02T16:16:31.306Z,10.10
2023-05-02T16:18:58.338Z,6.10
2023-05-02T16:21:25.145Z,5.00
2023-05-02T16:23:52.455Z,6.37
2023-05-02T16:26:20.907Z,7.50
2023-05-02T16:28:47.736Z,6.67
2023-05-02T16:31:15.266Z,6.73
2023-05-02T16:33:43.133Z,6.43
2023-05-02T16:36:10.217Z,5.80
2023-05-02T16:38:37.111Z,5.33
2023-05-02T16:41:05.153Z,5.10
2023-05-02T16:43:31.953Z,5.00
2023-05-02T16:46:00.380Z,6.73
2023-05-02T16:48:27.451Z,7.17
2023-05-02T16:50:54.353Z,5.60
2023-05-02T16:53:21.700Z,5.60
2023-05-02T16:55:48.483Z,6.70
2023-05-02T16:58:15.352Z,6.37
2023-05-02T17:00:42.289Z,6.40
2023-05-02T17:03:09.721Z,6.53
2023-05-02T17:05:36.873Z,8.70
2023-05-02T17:08:04.119Z,8.03
2023-05-02T17:10:31.501Z,8.63
2023-05-02T17:12:59.131Z,9.10
2023-05-02T17:15:26.174Z,9.77
2023-05-02T17:17:52.986Z,7.10
2023-05-02T17:20:20.694Z,6.93
2023-05-02T17:22:47.616Z,8.40
2023-05-02T17:25:14.576Z,7.43
2023-05-02T17:27:42.010Z,7.30
2023-05-02T17:30:09.126Z,6.50
2023-05-02T17:32:37.935Z,6.57
2023-05-02T17:35:04.932Z,7.27
2023-05-02T17:37:33.010Z,7.80
2023-05-02T17:40:02.422Z,5.77
2023-05-02T17:42:29.473Z,5.93
2023-05-02T17:44:56.333Z,5.40
2023-05-02T17:47:23.204Z,5.57
2023-05-02T17:49:51.411Z,5.70
2023-05-02T17:52:18.357Z,5.70
2023-05-02T17:54:45.478Z,5.23
2023-05-02T17:57:13.060Z,6.13
2023-05-02T17:59:40.409Z,7.03
2023-05-02T18:02:09.883Z,5.97
2023-05-02T18:04:37.484Z,6.33
2023-05-02T18:07:05.958Z,7.03
2023-05-02T18:09:33.122Z,6.93
2023-05-02T18:12:00.729Z,7.13
2023-05-02T18:14:27.506Z,7.67
2023-05-02T18:16:54.339Z,7.10
2023-05-02T18:19:22.159Z,7.27
2023-05-02T18:21:49.022Z,6.70
2023-05-02T18:24:15.897Z,6.60
2023-05-02T18:26:43.049Z,7.27
2023-05-02T18:29:10.236Z,7.10
2023-05-02T18:31:40.453Z,6.27
2023-05-02T18:34:07.668Z,6.63
2023-05-02T18:36:34.708Z,6.83
2023-05-02T18:39:01.557Z,6.43
2023-05-02T18:41:28.593Z,6.50
2023-05-02T18:43:55.390Z,6.60
2023-05-02T18:46:22.266Z,6.30
2023-05-02T18:48:49.120Z,6.80
2023-05-02T18:51:16.269Z,7.47
2023-05-02T18:53:43.222Z,8.70
2023-05-02T18:56:14.024Z,9.73
2023-05-02T18:58:41.425Z,10.37
2023-05-02T19:01:12.051Z,9.57
2023-05-02T19:03:39.052Z,9.60
2023-05-02T19:06:05.973Z,8.90
2023-05-02T19:08:33.019Z,13.13
2023-05-02T19:10:59.803Z,13.67
2023-05-02T19:13:29.290Z,14.30
2023-05-02T19:15:56.233Z,14.07
2023-05-02T19:18:23.288Z,12.90
2023-05-02T19:20:50.538Z,12.97
2023-05-02T19:23:20.683Z,11.70
2023-05-02T19:25:48.186Z,11.63
2023-05-02T19:28:16.988Z,10.23
2023-05-02T19:30:45.024Z,10.53
2023-05-02T19:33:12.069Z,9.90
2023-05-02T19:35:39.388Z,10.73
2023-05-02T19:38:06.456Z,10.30
2023-05-02T19:40:33.381Z,10.77
2023-05-02T19:43:00.181Z,10.73
2023-05-02T19:45:27.131Z,10.87
2023-05-02T19:47:53.981Z,11.33
2023-05-02T19:50:20.854Z,11.60
2023-05-02T19:52:47.592Z,11.47
2023-05-02T19:55:16.324Z,11.97
2023-05-02T19:57:44.729Z,11.77
2023-05-02T20:00:13.035Z,12.87
2023-05-02T20:02:39.936Z,13.30
2023-05-02T20:05:07.228Z,13.40
2023-05-02T20:07:34.272Z,12.83
2023-05-02T20:10:01.225Z,12.37
2023-05-02T20:12:28.464Z,12.70
2023-05-02T20:14:55.292Z,11.63
2023-05-02T20:17:22.108Z,12.63
2023-05-02T20:19:48.893Z,12.43
2023-05-02T20:22:15.906Z,11.93
2023-05-02T20:24:42.654Z,11.83
2023-05-02T20:27:10.657Z,11.63
2023-05-02T20:29:37.513Z,11.80
2023-05-02T20:32:04.544Z,11.83
2023-05-02T20:34:34.159Z,13.23
2023-05-02T20:37:02.289Z,11.93
2023-05-02T20:39:29.256Z,11.93
2023-05-02T20:41:58.621Z,12.37
2023-05-02T20:44:26.549Z,12.50
2023-05-02T20:46:53.501Z,13.03
2023-05-02T20:49:20.413Z,13.13
2023-05-02T20:51:47.248Z,12.83
2023-05-02T20:54:14.274Z,12.17
2023-05-02T20:56:41.025Z,13.87
2023-05-02T20:59:08.013Z,14.07
2023-05-02T21:01:35.063Z,13.70
2023-05-02T21:04:03.686Z,12.67
2023-05-02T21:06:33.613Z,11.60
2023-05-02T21:09:02.295Z,12.23
2023-05-02T21:11:29.242Z,11.53
2023-05-02T21:13:56.050Z,12.27
2023-05-02T21:16:23.106Z,12.17
2023-05-02T21:18:49.935Z,13.53
2023-05-02T21:21:16.893Z,13.43
2023-05-02T21:23:43.758Z,13.57
2023-05-02T21:26:10.560Z,12.70
2023-05-02T21:28:38.736Z,13.30
2023-05-02T21:31:06.523Z,14.20
2023-05-02T21:33:33.410Z,15.00
2023-05-02T21:36:00.293Z,14.67
2023-05-02T21:38:27.197Z,16.30
2023-05-02T21:40:54.180Z,14.97
2023-05-02T21:43:21.126Z,16.33
2023-05-02T21:45:48.755Z,14.40
2023-05-02T21:48:16.042Z,15.23
2023-05-02T21:50:43.186Z,15.37
2023-05-02T21:53:10.355Z,12.93
2023-05-02T21:55:37.845Z,14.00
2023-05-02T21:58:04.820Z,13.37
2023-05-02T22:00:32.653Z,13.97
2023-05-02T22:03:01.740Z,13.33
2023-05-02T22:05:28.559Z,13.50
2023-05-02T22:07:56.429Z,12.70
2023-05-02T22:10:23.198Z,12.43
2023-05-02T22:12:50.041Z,13.00
2023-05-02T22:15:16.868Z,12.50
2023-05-02T22:17:46.317Z,13.83
2023-05-02T22:20:13.283Z,12.27
2023-05-02T22:22:40.768Z,12.47
2023-05-02T22:25:08.008Z,12.33
2023-05-02T22:27:35.344Z,12.57
2023-05-02T22:30:03.033Z,12.07
2023-05-02T22:32:30.106Z,11.70
2023-05-02T22:34:56.921Z,12.97
2023-05-02T22:37:23.799Z,12.07
2023-05-02T22:39:51.283Z,12.83
2023-05-02T22:42:18.420Z,12.80
2023-05-02T22:47:17.770Z,12.27
2023-05-02T22:49:44.893Z,12.23
2023-05-02T22:52:13.116Z,12.87
2023-05-02T22:54:40.474Z,12.40
2023-05-02T22:57:07.257Z,12.30
2023-05-02T22:59:34.029Z,12.20
2023-05-02T23:02:01.058Z,12.63
2023-05-02T23:04:28.031Z,14.03
2023-05-02T23:06:54.903Z,14.63
2023-05-02T23:09:21.745Z,14.17
2023-05-02T23:11:48.510Z,13.20
2023-05-02T23:14:15.559Z,13.43
2023-05-02T23:16:42.310Z,13.27
2023-05-02T23:19:09.119Z,13.40
2023-05-02T23:21:35.906Z,13.30
2023-05-02T23:24:02.775Z,13.13
2023-05-02T23:26:29.662Z,13.63
2023-05-02T23:28:56.445Z,13.03
2023-05-02T23:31:23.434Z,12.47
2023-05-02T23:33:50.252Z,12.37
2023-05-02T23:36:17.681Z,12.20
2023-05-02T23:38:44.507Z,12.97
2023-05-02T23:41:11.311Z,14.00
2023-05-02T23:43:38.164Z,14.73
2023-05-02T23:46:04.976Z,12.90
2023-05-02T23:48:31.822Z,13.50
2023-05-02T23:50:58.714Z,12.33
2023-05-02T23:53:25.600Z,11.20
2023-05-02T23:55:52.386Z,11.47
2023-05-02T23:58:19.341Z,12.03
